Time;durP1;ratioP1;P1;durP2;ratioP2;P2;SDS_P1;SDS_P2;PMS_P1;PMS_P2;Temp;Humidity;BMP_temperature;BMP_pressure;BME280_temperature;BME280_humidity;BME280_pressure;Samples;Min_cycle;Max_cycle;Signal;HPM_P1;HPM_P2
2023/08/21 00:00:51;;;;;;;26.67;25.57;;;24.60;99.90;;;;;;4963971;28;20492;-55
2023/08/21 00:03:18;;;;;;;27.43;26.23;;;24.60;99.90;;;;;;4965905;28;20488;-52
2023/08/21 00:05:45;;;;;;;27.70;26.60;;;24.60;99.90;;;;;;4962643;28;20444;-55
2023/08/21 00:08:11;;;;;;;27.80;26.70;;;24.50;99.90;;;;;;4961615;28;20469;-56
2023/08/21 00:10:40;;;;;;;27.93;26.43;;;24.50;99.90;;;;;;4961993;28;20583;-53
2023/08/21 00:13:07;;;;;;;27.57;26.33;;;24.50;99.90;;;;;;4964528;28;20448;-55
2023/08/21 00:15:36;;;;;;;27.40;26.20;;;24.50;99.90;;;;;;4964175;28;20812;-53
2023/08/21 00:18:03;;;;;;;29.80;28.50;;;24.50;99.90;;;;;;4961149;28;20480;-57
2023/08/21 00:20:30;;;;;;;28.13;26.83;;;24.50;99.90;;;;;;4963970;28;20998;-55
2023/08/21 00:22:57;;;;;;;25.67;24.57;;;24.50;99.90;;;;;;4964234;28;20448;-57
2023/08/21 00:25:24;;;;;;;26.77;25.50;;;24.50;99.90;;;;;;4964634;28;20882;-53
2023/08/21 00:27:51;;;;;;;26.70;25.10;;;24.60;99.90;;;;;;4961165;28;20472;-56
2023/08/21 00:30:18;;;;;;;25.80;24.70;;;24.60;99.90;;;;;;4960746;28;20495;-57
2023/08/21 00:32:46;;;;;;;27.53;26.30;;;24.60;99.90;;;;;;4966345;28;20491;-58
2023/08/21 00:35:13;;;;;;;28.10;26.83;;;24.60;99.90;;;;;;4960779;28;20445;-57
2023/08/21 00:37:40;;;;;;;27.63;26.23;;;24.60;99.90;;;;;;4962022;28;20515;-58
2023/08/21 00:40:08;;;;;;;26.83;25.53;;;24.60;99.90;;;;;;4963354;28;20496;-56
2023/08/21 00:42:35;;;;;;;27.77;26.60;;;24.60;99.90;;;;;;4962573;28;20859;-55
2023/08/21 00:45:03;;;;;;;25.83;24.83;;;24.60;99.90;;;;;;4963094;28;20897;-56
2023/08/21 00:47:30;;;;;;;27.80;26.60;;;24.60;99.90;;;;;;4963540;28;20449;-58
2023/08/21 00:49:58;;;;;;;28.10;26.90;;;24.60;99.90;;;;;;4952192;28;20492;-56
2023/08/21 00:52:25;;;;;;;27.23;25.93;;;24.60;99.90;;;;;;4959791;28;20484;-56
2023/08/21 00:54:52;;;;;;;29.13;27.83;;;24.60;99.90;;;;;;4962604;28;20448;-58
2023/08/21 00:57:21;;;;;;;26.70;25.57;;;24.60;99.90;;;;;;4963219;28;21010;-53
2023/08/21 00:59:48;;;;;;;28.10;26.60;;;24.60;99.90;;;;;;4962751;28;20475;-53
2023/08/21 01:02:15;;;;;;;27.47;26.17;;;24.60;99.90;;;;;;4964567;28;20520;-56
2023/08/21 01:04:42;;;;;;;27.27;26.07;;;24.60;99.90;;;;;;4963192;28;20456;-58
2023/08/21 01:07:10;;;;;;;28.70;27.40;;;24.60;99.90;;;;;;4960333;28;20476;-53
2023/08/21 01:09:44;;;;;;;26.47;25.37;;;24.60;99.90;;;;;;4960693;28;20477;-54
2023/08/21 01:12:23;;;;;;;27.47;26.27;;;24.60;99.90;;;;;;4963330;28;20472;-53
2023/08/21 01:14:56;;;;;;;27.27;26.07;;;24.50;99.90;;;;;;4960512;28;20486;-53
2023/08/21 01:17:24;;;;;;;26.77;25.37;;;24.50;99.90;;;;;;4961053;28;20901;-55
2023/08/21 01:19:51;;;;;;;28.23;26.73;;;24.50;99.90;;;;;;4961988;28;20445;-56
2023/08/21 01:22:20;;;;;;;33.43;31.87;;;24.50;99.90;;;;;;4963260;28;20476;-54
2023/08/21 01:24:48;;;;;;;32.20;31.00;;;24.50;99.90;;;;;;4961602;28;20480;-59
2023/08/21 01:27:15;;;;;;;32.27;30.87;;;24.50;99.90;;;;;;4958214;28;20476;-53
2023/08/21 01:29:43;;;;;;;27.10;25.83;;;24.40;99.90;;;;;;4960573;28;20455;-55
2023/08/21 01:32:15;;;;;;;28.43;27.10;;;24.40;99.90;;;;;;4965168;28;20486;-54
2023/08/21 01:34:44;;;;;;;28.50;27.10;;;24.40;99.90;;;;;;4966024;28;20474;-53
2023/08/21 01:37:12;;;;;;;28.30;27.10;;;24.40;99.90;;;;;;4962584;28;20516;-54
2023/08/21 01:39:39;;;;;;;27.13;25.93;;;24.30;99.90;;;;;;4963196;28;20479;-57
2023/08/21 01:42:07;;;;;;;27.20;26.00;;;24.30;99.90;;;;;;4969116;28;20495;-55
2023/08/21 01:44:34;;;;;;;29.40;28.00;;;24.30;99.90;;;;;;4964993;28;20480;-53
2023/08/21 01:47:01;;;;;;;28.90;27.27;;;24.30;99.90;;;;;;4965786;28;20472;-56
2023/08/21 01:49:28;;;;;;;29.10;27.50;;;24.30;99.90;;;;;;4965024;28;20480;-56
2023/08/21 01:51:55;;;;;;;28.73;27.43;;;24.30;99.90;;;;;;4962662;28;21032;-56
2023/08/21 01:54:22;;;;;;;28.40;27.17;;;24.30;99.90;;;;;;4962206;28;20472;-52
2023/08/21 01:56:48;;;;;;;27.43;26.33;;;24.30;99.90;;;;;;4963866;28;20513;-56
2023/08/21 01:59:17;;;;;;;27.43;25.90;;;24.20;99.90;;;;;;4963278;28;20488;-55
2023/08/21 02:01:44;;;;;;;26.87;25.70;;;24.20;99.90;;;;;;4963343;28;20500;-52
2023/08/21 02:04:11;;;;;;;27.50;26.10;;;24.20;99.90;;;;;;4965449;28;20468;-52
2023/08/21 02:06:38;;;;;;;28.30;26.90;;;24.20;99.90;;;;;;4964691;28;20491;-56
2023/08/21 02:09:05;;;;;;;27.77;26.27;;;24.20;99.90;;;;;;4962083;28;20507;-54
2023/08/21 02:11:32;;;;;;;29.23;27.87;;;24.20;99.90;;;;;;4965210;28;20499;-57
2023/08/21 02:13:59;;;;;;;29.20;27.70;;;24.10;99.90;;;;;;4964179;28;20450;-53
2023/08/21 02:16:27;;;;;;;27.17;25.93;;;24.10;99.90;;;;;;4966210;28;20831;-57
2023/08/21 02:18:54;;;;;;;29.07;27.43;;;24.10;99.90;;;;;;4963983;28;20516;-53
2023/08/21 02:21:21;;;;;;;28.33;27.00;;;24.00;99.90;;;;;;4964854;28;20907;-53
2023/08/21 02:23:48;;;;;;;28.53;27.03;;;24.10;99.90;;;;;;4963130;28;20482;-54
2023/08/21 02:26:16;;;;;;;29.13;27.93;;;24.00;99.90;;;;;;4961493;28;20449;-53
2023/08/21 02:28:43;;;;;;;29.50;27.70;;;24.00;99.90;;;;;;4968497;28;20461;-54
2023/08/21 02:31:10;;;;;;;27.47;26.10;;;24.00;99.90;;;;;;4961346;28;20484;-54
2023/08/21 02:33:39;;;;;;;28.90;27.70;;;24.00;99.90;;;;;;4961644;28;20863;-56
2023/08/21 02:36:07;;;;;;;27.93;26.57;;;23.90;99.90;;;;;;4964492;28;20472;-55
2023/08/21 02:38:34;;;;;;;27.60;25.93;;;24.00;99.90;;;;;;4964305;28;20507;-58
2023/08/21 02:41:01;;;;;;;26.17;25.17;;;23.90;99.90;;;;;;4953409;28;20464;-53
2023/08/21 02:43:28;;;;;;;25.67;24.40;;;23.90;99.90;;;;;;4961856;28;20481;-57
2023/08/21 02:45:55;;;;;;;27.47;26.27;;;23.90;99.90;;;;;;4965041;28;22689;-54
2023/08/21 02:48:22;;;;;;;27.97;26.53;;;23.90;99.90;;;;;;4961895;28;20986;-56
2023/08/21 02:50:51;;;;;;;26.83;25.40;;;23.80;99.90;;;;;;4963440;28;20496;-56
2023/08/21 02:53:18;;;;;;;26.60;25.40;;;23.80;99.90;;;;;;4964374;28;20960;-53
2023/08/21 02:55:45;;;;;;;26.57;25.27;;;23.90;99.90;;;;;;4963220;28;20970;-54
2023/08/21 02:58:11;;;;;;;28.43;27.03;;;23.90;99.90;;;;;;4960809;28;20894;-53
2023/08/21 03:00:38;;;;;;;27.10;25.80;;;23.80;99.90;;;;;;4961081;28;20905;-54
2023/08/21 03:03:05;;;;;;;28.47;27.10;;;23.90;99.90;;;;;;4960826;28;20480;-54
2023/08/21 03:05:32;;;;;;;28.33;27.03;;;23.80;99.90;;;;;;4961490;28;20472;-55
2023/08/21 03:08:00;;;;;;;28.93;27.63;;;23.80;99.90;;;;;;4964517;28;20464;-54
2023/08/21 03:10:29;;;;;;;28.63;27.13;;;23.80;99.90;;;;;;4964826;28;20991;-53
2023/08/21 03:12:56;;;;;;;27.60;26.20;;;23.80;99.90;;;;;;4962061;28;20508;-55
2023/08/21 03:15:23;;;;;;;29.90;27.70;;;23.80;99.90;;;;;;4961321;28;20483;-57
2023/08/21 03:17:50;;;;;;;30.13;28.53;;;23.80;99.90;;;;;;4969605;28;20570;-57
2023/08/21 03:20:17;;;;;;;28.63;27.13;;;23.70;99.90;;;;;;4963883;28;20499;-54
2023/08/21 03:22:44;;;;;;;31.73;30.13;;;23.80;99.90;;;;;;4963165;28;20497;-54
2023/08/21 03:25:13;;;;;;;30.30;28.90;;;23.70;99.90;;;;;;4963831;28;20527;-53
2023/08/21 03:27:40;;;;;;;31.27;29.70;;;23.70;99.90;;;;;;4963873;28;20469;-53
2023/08/21 03:30:07;;;;;;;35.83;34.33;;;23.70;99.90;;;;;;4964074;28;20456;-55
2023/08/21 03:32:35;;;;;;;29.27;27.87;;;23.70;99.90;;;;;;4964154;28;20456;-54
2023/08/21 03:35:03;;;;;;;28.63;27.33;;;23.70;99.90;;;;;;4964477;28;20476;-52
2023/08/21 03:37:30;;;;;;;30.37;28.70;;;23.70;99.90;;;;;;4960941;28;21105;-53
2023/08/21 03:39:57;;;;;;;30.93;29.10;;;23.70;99.90;;;;;;4963218;28;20503;-53
2023/08/21 03:42:25;;;;;;;30.17;28.77;;;23.70;99.90;;;;;;4963205;28;20488;-57
2023/08/21 03:44:52;;;;;;;29.37;28.07;;;23.70;99.90;;;;;;4963930;28;20711;-57
2023/08/21 03:47:19;;;;;;;29.57;28.20;;;23.70;99.90;;;;;;4963693;28;20476;-53
2023/08/21 03:49:48;;;;;;;30.53;29.00;;;23.70;99.90;;;;;;4959579;28;20477;-53
2023/08/21 03:52:15;;;;;;;30.10;28.40;;;23.70;99.90;;;;;;4964059;28;20530;-55
2023/08/21 03:54:41;;;;;;;30.83;29.30;;;23.70;99.90;;;;;;4962239;28;20483;-57
2023/08/21 03:57:08;;;;;;;28.53;27.20;;;23.70;99.90;;;;;;4960077;28;20473;-53
2023/08/21 03:59:36;;;;;;;30.80;29.43;;;23.80;99.90;;;;;;4959880;28;20483;-54
2023/08/21 04:02:03;;;;;;;31.30;29.70;;;23.70;99.90;;;;;;4952108;28;20503;-55
2023/08/21 04:04:30;;;;;;;33.97;32.23;;;23.70;99.90;;;;;;4960248;28;20980;-55
2023/08/21 04:06:57;;;;;;;31.50;29.80;;;23.70;99.90;;;;;;4965542;28;20463;-55
2023/08/21 04:09:24;;;;;;;31.03;29.73;;;23.70;99.90;;;;;;4960686;28;20487;-53
2023/08/21 04:11:51;;;;;;;31.13;29.73;;;23.70;99.90;;;;;;4961817;28;20834;-53
2023/08/21 04:14:18;;;;;;;32.50;31.07;;;23.70;99.90;;;;;;4962999;28;20495;-56
2023/08/21 04:16:47;;;;;;;30.97;29.63;;;23.70;99.90;;;;;;4962013;28;20472;-53
2023/08/21 04:19:13;;;;;;;31.73;30.23;;;23.70;99.90;;;;;;4960202;28;20558;-53
2023/08/21 04:21:40;;;;;;;29.10;27.70;;;23.70;99.90;;;;;;4960509;28;20935;-55
2023/08/21 04:24:08;;;;;;;32.10;30.63;;;23.70;99.90;;;;;;4952531;28;20481;-53
2023/08/21 04:26:35;;;;;;;31.13;29.50;;;23.70;99.90;;;;;;4963043;28;20484;-52
2023/08/21 04:29:02;;;;;;;30.43;29.10;;;23.70;99.90;;;;;;4962717;28;20472;-56
2023/08/21 04:31:29;;;;;;;30.77;29.27;;;23.80;99.90;;;;;;4962640;28;20496;-53
2023/08/21 04:33:57;;;;;;;30.40;29.10;;;23.80;99.90;;;;;;4960507;28;20487;-52
2023/08/21 04:36:24;;;;;;;30.60;29.10;;;23.80;99.90;;;;;;4959843;28;20473;-54
2023/08/21 04:38:51;;;;;;;32.63;30.90;;;23.90;99.90;;;;;;4961470;28;20508;-54
2023/08/21 04:41:17;;;;;;;32.23;30.50;;;23.90;99.90;;;;;;4964281;28;20503;-55
2023/08/21 04:43:44;;;;;;;37.33;35.83;;;23.90;99.90;;;;;;4968488;28;20479;-51
2023/08/21 04:46:12;;;;;;;37.37;35.70;;;23.90;99.90;;;;;;4961471;28;20468;-53
2023/08/21 04:48:43;;;;;;;36.23;34.83;;;24.00;99.90;;;;;;4962817;28;20444;-50
2023/08/21 04:51:16;;;;;;;35.90;34.40;;;24.00;99.90;;;;;;4953924;28;20503;-49
2023/08/21 04:53:43;;;;;;;35.03;33.73;;;24.00;99.90;;;;;;4958987;28;20441;-51
2023/08/21 04:56:16;;;;;;;35.63;34.40;;;24.10;99.90;;;;;;4962012;28;20468;-51
2023/08/21 04:58:46;;;;;;;39.00;37.03;;;24.20;99.90;;;;;;4960187;28;20555;-53
2023/08/21 05:01:24;;;;;;;35.80;34.40;;;24.30;99.90;;;;;;4962610;28;21046;-55
2023/08/21 05:03:54;;;;;;;36.80;35.30;;;24.40;99.90;;;;;;4963108;28;20506;-52
2023/08/21 05:06:24;;;;;;;37.90;36.40;;;24.50;99.90;;;;;;4961355;28;20449;-56
2023/08/21 05:08:53;;;;;;;38.83;37.23;;;24.70;99.90;;;;;;4963525;28;20449;-51
2023/08/21 05:11:20;;;;;;;35.87;34.47;;;24.80;99.90;;;;;;4965092;28;20491;-53
2023/08/21 05:13:53;;;;;;;36.67;35.33;;;24.90;99.90;;;;;;4958164;28;21002;-51
2023/08/21 05:16:21;;;;;;;36.03;34.63;;;25.00;99.90;;;;;;4965304;28;20474;-51
2023/08/21 05:18:50;;;;;;;37.00;35.50;;;25.10;99.90;;;;;;4964151;28;20479;-52
2023/08/21 05:21:22;;;;;;;38.23;36.33;;;25.20;99.90;;;;;;4961896;28;20511;-51
2023/08/21 05:26:39;;;;;;;39.90;37.93;;;25.40;99.90;;;;;;4964607;28;20444;-51
2023/08/21 05:29:07;;;;;;;41.67;39.87;;;25.50;99.90;;;;;;4961025;28;20793;-54
2023/08/21 05:31:36;;;;;;;38.60;37.10;;;25.60;99.90;;;;;;4968216;28;20499;-51
2023/08/21 05:34:09;;;;;;;39.93;38.33;;;25.70;99.90;;;;;;4960969;28;20452;-50
2023/08/21 05:36:42;;;;;;;38.63;36.87;;;25.80;99.90;;;;;;4961090;28;20461;-50
2023/08/21 05:41:55;;;;;;;39.73;37.83;;;25.90;99.90;;;;;;4962187;28;20465;-52
2023/08/21 05:44:23;;;;;;;41.13;39.43;;;26.00;99.90;;;;;;4966028;28;20448;-58
2023/08/21 05:46:51;;;;;;;39.83;38.13;;;26.10;99.90;;;;;;4962051;28;20444;-52
2023/08/21 05:49:23;;;;;;;40.90;39.00;;;26.10;99.90;;;;;;4967598;28;20524;-51
2023/08/21 05:51:53;;;;;;;40.60;38.80;;;26.20;99.90;;;;;;4961635;28;20552;-53
2023/08/21 05:54:22;;;;;;;38.30;36.90;;;26.20;99.90;;;;;;4963674;28;20513;-52
2023/08/21 05:56:50;;;;;;;40.20;38.50;;;26.30;99.90;;;;;;4962832;28;20539;-52
2023/08/21 05:59:31;;;;;;;41.80;39.97;;;26.30;99.90;;;;;;4963728;28;20480;-55
2023/08/21 06:02:07;;;;;;;39.77;38.07;;;26.30;99.90;;;;;;4962317;28;20567;-54
2023/08/21 06:04:37;;;;;;;40.23;38.57;;;26.40;99.90;;;;;;4963670;28;20509;-54
2023/08/21 06:07:08;;;;;;;43.13;41.43;;;26.50;99.90;;;;;;4960912;28;20445;-52
2023/08/21 06:09:38;;;;;;;43.07;40.90;;;26.50;99.90;;;;;;4960422;28;20824;-53
2023/08/21 06:12:16;;;;;;;41.53;39.73;;;26.50;99.90;;;;;;4964104;28;20894;-53
2023/08/21 06:14:47;;;;;;;42.73;40.83;;;26.50;99.90;;;;;;4963315;28;20506;-52
2023/08/21 06:17:16;;;;;;;42.30;40.40;;;26.40;99.60;;;;;;4958340;28;20488;-52
2023/08/21 06:19:46;;;;;;;42.37;40.43;;;26.50;99.80;;;;;;4960132;28;21047;-50
2023/08/21 06:22:18;;;;;;;42.80;40.93;;;26.50;99.90;;;;;;4953033;28;20483;-55
2023/08/21 06:24:49;;;;;;;43.47;41.33;;;26.50;99.90;;;;;;4960243;28;20488;-57
2023/08/21 06:27:21;;;;;;;41.70;39.50;;;26.60;99.90;;;;;;4962550;28;20873;-51
2023/08/21 06:29:54;;;;;;;42.33;40.10;;;26.60;99.90;;;;;;4960252;28;20528;-54
2023/08/21 06:32:24;;;;;;;42.17;40.27;;;26.60;99.90;;;;;;4963027;28;20844;-52
2023/08/21 06:34:52;;;;;;;43.30;41.37;;;26.70;99.90;;;;;;4963829;28;20448;-53
2023/08/21 06:37:20;;;;;;;41.33;39.63;;;26.70;99.90;;;;;;4961471;28;20471;-54
2023/08/21 06:39:51;;;;;;;43.23;41.40;;;26.80;99.90;;;;;;4962591;28;20481;-56
2023/08/21 06:42:28;;;;;;;43.77;41.77;;;26.80;99.90;;;;;;4964582;28;20471;-51
2023/08/21 06:44:56;;;;;;;43.67;41.87;;;26.90;99.90;;;;;;4971035;28;20459;-54
2023/08/21 06:47:23;;;;;;;42.93;41.03;;;26.90;99.90;;;;;;4960886;28;20453;-51
2023/08/21 06:49:52;;;;;;;43.60;41.30;;;26.90;99.90;;;;;;4966603;28;20440;-50
2023/08/21 06:52:19;;;;;;;43.07;41.17;;;26.90;99.90;;;;;;4960725;28;20445;-51
2023/08/21 06:54:49;;;;;;;44.27;42.33;;;27.00;99.90;;;;;;4961053;28;20551;-53
2023/08/21 06:57:21;;;;;;;41.60;39.70;;;27.00;99.70;;;;;;4963430;28;20479;-56
2023/08/21 06:59:48;;;;;;;42.30;40.47;;;27.00;99.20;;;;;;4962763;28;20480;-56
2023/08/21 07:02:20;;;;;;;44.77;42.40;;;27.00;99.40;;;;;;4960089;28;20503;-52
2023/08/21 07:04:50;;;;;;;37.73;35.60;;;27.00;99.60;;;;;;4963197;28;20491;-54
2023/08/21 07:07:18;;;;;;;36.43;34.70;;;27.00;99.50;;;;;;4964233;28;20456;-59
2023/08/21 07:09:56;;;;;;;40.27;38.10;;;27.10;99.70;;;;;;4959839;28;20508;-53
2023/08/21 07:12:26;;;;;;;37.20;35.30;;;27.00;99.20;;;;;;4953712;28;20441;-56
2023/08/21 07:14:53;;;;;;;38.90;36.90;;;27.10;99.10;;;;;;4960770;28;20464;-57
2023/08/21 07:17:21;;;;;;;36.13;34.53;;;27.00;98.90;;;;;;4963541;28;20468;-55
2023/08/21 07:19:52;;;;;;;38.20;36.10;;;27.00;98.70;;;;;;4962469;28;20484;-56
2023/08/21 07:22:29;;;;;;;36.00;34.20;;;26.90;98.70;;;;;;4959956;28;20524;-53
2023/08/21 07:25:06;;;;;;;38.37;36.40;;;26.80;98.60;;;;;;4960877;28;20479;-55
2023/08/21 07:27:33;;;;;;;38.73;37.03;;;26.80;98.70;;;;;;4963216;28;20455;-55
2023/08/21 07:30:02;;;;;;;37.03;35.33;;;26.70;98.80;;;;;;4960229;28;20467;-55
2023/08/21 07:32:36;;;;;;;37.80;35.80;;;26.60;98.90;;;;;;4960127;28;20936;-57
2023/08/21 07:35:07;;;;;;;37.93;35.97;;;26.50;99.10;;;;;;4961111;28;20480;-55
2023/08/21 07:37:38;;;;;;;38.37;36.30;;;26.50;99.20;;;;;;4963280;28;20472;-57
2023/08/21 07:40:09;;;;;;;39.70;37.70;;;26.30;99.30;;;;;;4960026;28;20871;-57
2023/08/21 07:42:43;;;;;;;39.43;37.47;;;26.30;99.50;;;;;;4960062;28;20942;-54
2023/08/21 07:45:11;;;;;;;37.97;35.97;;;26.10;99.80;;;;;;4962912;28;20448;-55
2023/08/21 07:47:44;;;;;;;37.97;36.10;;;26.10;99.90;;;;;;4963205;28;20446;-55
2023/08/21 07:50:16;;;;;;;38.23;36.23;;;26.00;99.90;;;;;;4957845;28;20526;-57
2023/08/21 07:52:47;;;;;;;38.77;36.80;;;25.90;99.90;;;;;;4961694;28;20444;-57
2023/08/21 07:55:22;;;;;;;44.67;42.27;;;25.90;99.90;;;;;;4952217;28;20449;-53
2023/08/21 07:57:50;;;;;;;44.87;42.93;;;25.80;99.90;;;;;;4959656;28;20448;-54
2023/08/21 08:00:18;;;;;;;45.77;43.70;;;25.70;99.90;;;;;;4968972;28;20488;-53
2023/08/21 08:02:49;;;;;;;46.07;44.07;;;25.70;99.90;;;;;;4961954;28;20869;-52
2023/08/21 08:05:17;;;;;;;47.20;45.23;;;25.70;99.90;;;;;;4958844;28;20924;-56
2023/08/21 08:07:46;;;;;;;44.73;42.87;;;25.60;99.90;;;;;;4957512;28;20962;-51
2023/08/21 08:10:21;;;;;;;45.20;43.00;;;25.70;99.90;;;;;;4960824;28;20491;-55
2023/08/21 08:12:50;;;;;;;43.57;41.37;;;25.70;99.90;;;;;;4962092;28;21005;-55
2023/08/21 08:15:19;;;;;;;43.80;41.90;;;25.80;99.90;;;;;;4951337;28;20457;-51
2023/08/21 08:17:47;;;;;;;47.20;45.00;;;25.90;99.90;;;;;;4958893;28;20481;-55
2023/08/21 08:20:16;;;;;;;45.73;43.53;;;26.00;99.90;;;;;;4962690;28;20484;-50
2023/08/21 08:22:45;;;;;;;44.90;42.87;;;26.10;99.90;;;;;;4962588;28;20444;-50
2023/08/21 08:25:25;;;;;;;45.00;42.93;;;26.10;99.90;;;;;;4958000;28;20468;-53
2023/08/21 08:30:38;;;;;;;45.33;43.23;;;26.30;99.90;;;;;;4965964;28;20469;-50
2023/08/21 08:33:09;;;;;;;45.80;43.87;;;26.30;99.90;;;;;;4954462;28;20445;-56
2023/08/21 08:35:41;;;;;;;44.27;42.47;;;26.40;99.90;;;;;;4964117;28;20985;-51
2023/08/21 08:38:08;;;;;;;44.20;42.40;;;26.60;99.90;;;;;;4960882;28;20509;-53
2023/08/21 08:40:56;;;;;;;45.30;43.37;;;26.60;99.90;;;;;;4966551;28;20548;-55
2023/08/21 08:43:26;;;;;;;45.40;43.40;;;26.70;99.90;;;;;;4957712;28;20445;-54
2023/08/21 08:45:58;;;;;;;49.27;45.77;;;26.70;99.90;;;;;;4962728;28;20571;-56
2023/08/21 08:48:26;;;;;;;43.50;41.50;;;26.80;99.90;;;;;;4967886;28;20450;-52
2023/08/21 08:50:54;;;;;;;45.57;43.57;;;26.90;99.90;;;;;;4961438;28;20514;-52
2023/08/21 08:53:24;;;;;;;44.73;42.70;;;26.90;99.90;;;;;;4966191;28;20815;-53
2023/08/21 08:55:53;;;;;;;46.60;44.60;;;27.00;99.50;;;;;;4965898;28;20436;-51
2023/08/21 08:58:24;;;;;;;42.87;40.80;;;27.10;99.50;;;;;;4964152;28;20468;-52
2023/08/21 09:01:07;;;;;;;45.40;43.50;;;27.10;99.20;;;;;;4966475;28;20487;-50
2023/08/21 09:03:35;;;;;;;43.97;42.10;;;27.10;99.00;;;;;;4956782;28;20440;-49
2023/08/21 09:06:04;;;;;;;43.80;42.00;;;27.20;98.90;;;;;;4967642;28;20473;-53
2023/08/21 09:08:33;;;;;;;47.33;45.23;;;27.20;98.30;;;;;;4966662;28;20461;-51
2023/08/21 09:11:08;;;;;;;45.83;44.00;;;27.20;98.30;;;;;;4972828;28;20503;-50
2023/08/21 09:13:36;;;;;;;44.10;42.00;;;27.20;98.40;;;;;;4967674;28;20467;-52
2023/08/21 09:16:04;;;;;;;43.70;41.80;;;27.20;98.80;;;;;;4966005;28;20447;-55
2023/08/21 09:18:31;;;;;;;43.63;41.93;;;27.30;98.40;;;;;;4964967;28;20472;-54
2023/08/21 09:20:59;;;;;;;47.23;44.93;;;27.30;97.50;;;;;;4967968;28;20587;-50
2023/08/21 09:23:33;;;;;;;44.07;42.13;;;27.40;97.20;;;;;;4968135;28;20475;-52
2023/08/21 09:26:12;;;;;;;47.67;45.53;;;27.40;96.80;;;;;;4966105;28;20501;-53
2023/08/21 09:28:40;;;;;;;44.83;42.93;;;27.40;96.50;;;;;;4965087;28;20451;-53
2023/08/21 09:31:11;;;;;;;43.03;41.23;;;27.40;96.50;;;;;;4966698;28;20500;-53
2023/08/21 09:33:38;;;;;;;44.13;42.20;;;27.40;96.60;;;;;;4963999;28;20452;-53
2023/08/21 09:36:09;;;;;;;43.30;41.43;;;27.50;96.60;;;;;;4965467;28;20456;-52
2023/08/21 09:38:36;;;;;;;46.30;44.40;;;27.50;96.30;;;;;;4967917;28;20472;-51
2023/08/21 09:41:08;;;;;;;42.17;40.47;;;27.50;96.10;;;;;;4964783;28;20515;-51
2023/08/21 09:43:45;;;;;;;43.93;42.03;;;27.50;95.90;;;;;;4962514;28;20473;-54
2023/08/21 09:46:17;;;;;;;43.10;41.30;;;27.60;95.90;;;;;;4972004;28;20459;-53
2023/08/21 09:48:49;;;;;;;47.93;45.93;;;27.50;95.90;;;;;;4965755;28;20518;-55
2023/08/21 09:51:18;;;;;;;47.05;44.95;;;27.60;96.00;;;;;;4961947;28;20807;-56
2023/08/21 09:53:46;;;;;;;45.90;43.80;;;27.70;96.40;;;;;;4961228;28;20296;-53
2023/08/21 09:56:18;;;;;;;38.93;37.03;;;27.80;96.30;;;;;;4964539;28;20824;-53
2023/08/21 09:58:49;;;;;;;44.30;41.90;;;27.80;96.30;;;;;;4964466;28;20456;-55
2023/08/21 10:01:18;;;;;;;41.60;39.57;;;27.90;96.30;;;;;;4971777;28;20575;-52
2023/08/21 10:03:47;;;;;;;41.93;39.47;;;27.90;96.20;;;;;;4964509;28;20476;-53
2023/08/21 10:06:18;;;;;;;41.27;39.27;;;27.90;96.30;;;;;;4966753;28;20440;-55
2023/08/21 10:08:49;;;;;;;42.23;40.13;;;27.90;95.90;;;;;;4967758;28;20440;-55
2023/08/21 10:11:22;;;;;;;42.90;40.20;;;27.80;95.90;;;;;;4964901;28;20457;-52
2023/08/21 10:13:53;;;;;;;40.07;38.07;;;27.80;95.90;;;;;;4964437;28;20464;-54
2023/08/21 10:16:29;;;;;;;40.37;38.47;;;27.70;96.00;;;;;;4956458;28;20447;-52
2023/08/21 10:19:03;;;;;;;41.37;39.17;;;27.60;96.10;;;;;;4964198;28;20885;-53
2023/08/21 10:21:39;;;;;;;39.07;37.17;;;27.50;96.30;;;;;;4965107;28;20516;-50
2023/08/21 10:24:07;;;;;;;40.10;38.17;;;27.30;96.40;;;;;;4962341;28;20474;-50
2023/08/21 10:26:40;;;;;;;38.83;37.00;;;27.20;96.60;;;;;;4961178;28;20516;-50
2023/08/21 10:29:10;;;;;;;36.67;34.87;;;27.10;96.70;;;;;;4962180;28;20451;-52
2023/08/21 10:31:39;;;;;;;41.03;38.87;;;27.00;97.00;;;;;;4963860;28;20494;-50
2023/08/21 10:34:10;;;;;;;40.87;38.77;;;26.90;97.20;;;;;;4962177;28;20448;-51
2023/08/21 10:37:12;;;;;;;38.80;36.90;;;26.90;97.50;;;;;;4960496;28;20472;-50
2023/08/21 10:39:42;;;;;;;37.57;35.77;;;26.80;97.50;;;;;;4957171;28;20495;-54
2023/08/21 10:42:14;;;;;;;38.60;36.70;;;26.70;97.60;;;;;;4961972;28;20456;-54
2023/08/21 10:45:02;;;;;;;41.17;39.17;;;26.60;97.70;;;;;;4963510;28;20815;-52
2023/08/21 10:47:38;;;;;;;37.97;35.87;;;26.50;97.80;;;;;;4954310;28;20491;-50
2023/08/21 10:50:09;;;;;;;40.23;38.33;;;26.50;97.90;;;;;;4961282;28;20552;-54
2023/08/21 10:52:41;;;;;;;36.93;35.13;;;26.40;98.20;;;;;;4963324;28;20877;-53
2023/08/21 10:55:11;;;;;;;38.53;36.77;;;26.40;98.30;;;;;;4962014;28;20455;-50
2023/08/21 10:57:52;;;;;;;36.53;34.83;;;26.40;98.40;;;;;;4959562;28;20531;-52
2023/08/21 11:00:20;;;;;;;37.17;35.37;;;26.30;99.10;;;;;;4962877;28;20522;-50
2023/08/21 11:02:49;;;;;;;39.50;37.60;;;26.30;98.80;;;;;;4963195;28;20450;-53
2023/08/21 11:05:17;;;;;;;39.30;37.40;;;26.20;99.00;;;;;;4960651;28;20474;-52
2023/08/21 11:07:45;;;;;;;39.20;37.20;;;26.20;98.80;;;;;;4959981;28;20857;-55
2023/08/21 11:10:14;;;;;;;41.07;38.97;;;26.20;98.90;;;;;;4961669;28;20488;-50
2023/08/21 11:12:51;;;;;;;37.27;35.47;;;26.20;98.90;;;;;;4963166;28;20923;-50
2023/08/21 11:15:18;;;;;;;41.77;39.43;;;26.10;98.80;;;;;;4960243;28;20479;-50
2023/08/21 11:17:52;;;;;;;39.63;37.43;;;26.10;99.00;;;;;;4959638;28;20476;-51
2023/08/21 11:20:20;;;;;;;39.87;37.77;;;26.10;99.00;;;;;;4962353;28;20582;-54
2023/08/21 11:22:47;;;;;;;40.10;38.20;;;26.10;98.90;;;;;;4963102;28;20448;-52
2023/08/21 11:25:15;;;;;;;38.40;36.70;;;26.10;99.30;;;;;;4961157;28;20479;-55
2023/08/21 11:27:42;;;;;;;38.70;36.80;;;26.10;99.30;;;;;;4960041;28;20472;-50
2023/08/21 11:30:12;;;;;;;38.67;36.73;;;26.00;99.00;;;;;;4961197;28;20499;-51
2023/08/21 11:32:39;;;;;;;38.87;36.97;;;26.10;99.10;;;;;;4962862;28;20961;-50
2023/08/21 11:35:07;;;;;;;39.07;37.27;;;26.00;99.20;;;;;;4961666;28;20529;-52
2023/08/21 11:37:34;;;;;;;38.53;36.50;;;26.00;99.40;;;;;;4959881;28;20896;-50
2023/08/21 11:40:08;;;;;;;37.33;35.30;;;26.00;99.30;;;;;;4959703;28;21020;-51
2023/08/21 11:42:35;;;;;;;41.37;39.30;;;26.00;99.30;;;;;;4962450;28;20471;-50
2023/08/21 11:45:03;;;;;;;38.77;36.80;;;26.00;99.40;;;;;;4961716;28;20482;-55
2023/08/21 11:47:35;;;;;;;36.67;34.87;;;26.00;99.50;;;;;;4958924;28;20445;-55
2023/08/21 11:50:07;;;;;;;37.43;35.60;;;26.00;99.40;;;;;;4959134;28;20503;-54
2023/08/21 11:52:37;;;;;;;36.23;34.63;;;26.00;99.30;;;;;;4962793;28;20451;-50
2023/08/21 11:55:09;;;;;;;38.87;36.97;;;26.00;99.60;;;;;;4961651;28;20444;-50
2023/08/21 11:57:36;;;;;;;37.87;36.07;;;26.00;99.60;;;;;;4959591;28;20477;-50
2023/08/21 12:00:06;;;;;;;38.33;36.63;;;26.00;99.50;;;;;;4959648;28;20523;-50
2023/08/21 12:02:34;;;;;;;36.50;34.70;;;26.00;99.70;;;;;;4962487;28;20443;-51
2023/08/21 12:05:06;;;;;;;39.00;37.07;;;26.00;99.50;;;;;;4962383;28;20479;-50
2023/08/21 12:07:33;;;;;;;38.27;36.40;;;26.00;99.40;;;;;;4959437;28;20465;-51
2023/08/21 12:10:00;;;;;;;39.57;37.77;;;26.00;99.10;;;;;;4959021;28;20908;-52
2023/08/21 12:12:27;;;;;;;37.87;36.00;;;26.00;99.40;;;;;;4962381;28;20467;-53
2023/08/21 12:14:54;;;;;;;39.47;37.47;;;26.00;99.20;;;;;;4962018;28;20487;-52
2023/08/21 12:17:21;;;;;;;37.47;35.67;;;26.00;99.20;;;;;;4959729;28;20477;-51
2023/08/21 12:19:49;;;;;;;38.00;36.10;;;26.00;99.10;;;;;;4958853;28;20483;-52
2023/08/21 12:22:16;;;;;;;37.10;35.27;;;26.00;99.10;;;;;;4961303;28;20864;-50
2023/08/21 12:24:43;;;;;;;37.80;36.10;;;26.00;99.30;;;;;;4962111;28;20471;-51
2023/08/21 12:27:10;;;;;;;37.87;36.07;;;26.10;99.00;;;;;;4961054;28;20879;-50
2023/08/21 12:29:37;;;;;;;39.37;37.00;;;26.10;98.90;;;;;;4958921;28;20473;-50
2023/08/21 12:32:04;;;;;;;36.60;34.80;;;26.10;98.70;;;;;;4959262;28;20480;-50
2023/08/21 12:34:31;;;;;;;37.40;35.60;;;26.10;98.60;;;;;;4962114;28;20507;-50
2023/08/21 12:36:59;;;;;;;38.10;35.67;;;26.10;98.80;;;;;;4962032;28;20486;-50
2023/08/21 12:39:26;;;;;;;39.10;37.30;;;26.10;98.60;;;;;;4958936;28;20496;-50
2023/08/21 12:41:53;;;;;;;39.10;37.20;;;26.10;98.40;;;;;;4958687;28;20588;-51
2023/08/21 12:44:19;;;;;;;38.00;36.27;;;26.10;98.50;;;;;;4961191;28;20879;-53
2023/08/21 12:46:46;;;;;;;38.63;36.47;;;26.20;98.80;;;;;;4962077;28;20494;-51